Houston's Hourly Summary for Saturday, July 7, 2018
Hour Temp
(f)
RH
(%)
Solar Rad.
(MJ/m2)
Rainfall
(in)
Wind
(mph)
7/7/2018 12:00 AM 76 87 0 0.01 1.96
7/7/2018 1:00 AM 74 92 0 0.01 0.02
7/7/2018 2:00 AM 74 94 0 0.01 0
7/7/2018 3:00 AM 74 94 0 0.01 0
7/7/2018 4:00 AM 74 95 0 0.01 0
7/7/2018 5:00 AM 74 95 0 0.01 0
7/7/2018 6:00 AM 73 96 0 0.01 0
7/7/2018 7:00 AM 73 96 0.03 0.01 0
7/7/2018 8:00 AM 75 91 0.34 0.01 0
7/7/2018 9:00 AM 78 77 1.17 0.01 2.61
7/7/2018 10:00 AM 82 68 1.76 0 2.53
7/7/2018 11:00 AM 84 61 2.16 0.01 3.35
7/7/2018 12:00 PM 86 58 1.86 0.01 3.1
7/7/2018 1:00 PM 87 53 2.03 0 4.05
7/7/2018 2:00 PM 87 53 1.56 0.01 3.99
7/7/2018 3:00 PM 85 46 1.94 0 5.82
7/7/2018 4:00 PM 88 47 3.01 0 6.37
7/7/2018 5:00 PM 88 48 2.29 0.01 5.69
7/7/2018 6:00 PM 87 46 1.05 0 4.18
7/7/2018 7:00 PM 86 45 0.43 0 4.03
7/7/2018 8:00 PM 84 59 0.1 0 3.77
7/7/2018 9:00 PM 82 60 0.02 0.01 3.47
7/7/2018 10:00 PM 80 74 0 0 1.42
7/7/2018 11:00 PM 79 81 0 0 0.8
Data Summary 80 71 19.75 0.15 2.38